Adele Elise — WDD7691 — position and weather

sailwx.info

Track history (hours):
 
Tides and Currents Weather Stations Pressure Air Temp Water Temp Dewpoint Dewpoint Depression Visibility Wind Speed Wind Dir Waves Ship Positions

Adele Elise

Owner: ADELE ELISE LLC, MATHEWS, LA. More information available from US FCC via Universal Licensing System and Coast Guard Vessel Documentation Center.

Last reported at 2018-May-18 09:03 UTC. Time now 2018-May-24 21:07 UTC.
Position N 28°18' W 090°28'.

Length 70 m; draft 4 m.

MMSI: 367189890.

Date/timePositionNaut miles runAvg speedWind from/ knotsBaromVisibWave heightAir tempDewpointWater temp
2018-May-18 09:03N 28°18' W 090°28'810.3
2018-May-18 08:15N 28°10' W 090°31'310.4
2018-May-18 08:00N 28°08' W 090°32'1 0.5
2018-May-18 06:50N 28°07' W 090°32'0 0.1
2018-May-18 05:33N 28°07' W 090°32'0 0.0
2018-May-18 04:41N 28°07' W 090°32'0 0.0
2018-May-17 10:04N 28°07' W 090°32'0 0.2
2018-May-17 10:00N 28°07' W 090°32'0 0.0
2018-May-17 08:13N 28°07' W 090°32'0 0.0
2018-May-17 07:05N 28°07' W 090°32'0 0.0
2018-May-17 06:58N 28°07' W 090°32'0 0.0
2018-May-17 06:29N 28°07' W 090°32'0 0.0
2018-May-16 22:34N 28°07' W 090°32'0 0.0
2018-May-16 22:30N 28°07' W 090°32'  
2018-May-14 15:10N 28°07' W 090°32'0 0.0
2018-May-14 15:00N 28°07' W 090°32'0 0.0
2018-May-14 12:56N 28°07' W 090°32'  
2018-May-09 09:19N 28°50' W 090°15'8 9.8
2018-May-09 08:31N 28°42' W 090°17'0 9.6
2018-May-09 08:30N 28°42' W 090°17'9 9.6
2018-May-09 07:31N 28°32' W 090°20'0 9.5
2018-May-09 07:30N 28°32' W 090°20'610.4
2018-May-09 06:59N 28°27' W 090°21'22 2.2
2018-May-08 20:53N 28°07' W 090°32'0 0.1
2018-May-08 20:30N 28°07' W 090°32'0 0.2
2018-May-08 19:42N 28°07' W 090°32'0 0.2
2018-May-08 19:15N 28°07' W 090°32'0 0.1
2018-May-08 18:57N 28°07' W 090°32'0 0.1
2018-May-08 18:30N 28°07' W 090°32'0 0.1
2018-May-08 18:00N 28°07' W 090°32'0 0.1
2018-May-08 16:51N 28°07' W 090°32'0 0.0
2018-May-08 16:30N 28°07' W 090°32'0 0.1
2018-May-08 16:00N 28°07' W 090°32'0 0.1
2018-May-08 15:22N 28°07' W 090°32'0 0.1
2018-May-08 14:59N 28°07' W 090°32'0 0.1
2018-May-08 14:30N 28°07' W 090°32'0 0.2
2018-May-08 13:28N 28°07' W 090°32'0 0.2
2018-May-08 13:00N 28°07' W 090°32'1 0.3
2018-May-08 10:23N 28°07' W 090°31'0 1.0
2018-May-08 10:00N 28°07' W 090°31'0 0.5
2018-May-08 09:30N 28°07' W 090°31'  
Track history (hours):
 
Tides and Currents Weather Stations Pressure Air Temp Water Temp Dewpoint Dewpoint Depression Visibility Wind Speed Wind Dir Waves Ship Positions

Adele Elise

Owner: ADELE ELISE LLC, MATHEWS, LA. More information available from US FCC via Universal Licensing System and Coast Guard Vessel Documentation Center.

Last reported at 2018-May-18 09:03 UTC. Time now 2018-May-24 21:07 UTC.
Position N 28°18' W 090°28'.

Length 70 m; draft 4 m.

MMSI: 367189890.

Date/timePositionNaut miles runAvg speedWind from/ knotsBaromVisibWave heightAir tempDewpointWater temp
2018-May-18 09:03N 28°18' W 090°28'810.3
2018-May-18 08:15N 28°10' W 090°31'310.4
2018-May-18 08:00N 28°08' W 090°32'1 0.5
2018-May-18 06:50N 28°07' W 090°32'0 0.1
2018-May-18 05:33N 28°07' W 090°32'0 0.0
2018-May-18 04:41N 28°07' W 090°32'0 0.0
2018-May-17 10:04N 28°07' W 090°32'0 0.2
2018-May-17 10:00N 28°07' W 090°32'0 0.0
2018-May-17 08:13N 28°07' W 090°32'0 0.0
2018-May-17 07:05N 28°07' W 090°32'0 0.0
2018-May-17 06:58N 28°07' W 090°32'0 0.0
2018-May-17 06:29N 28°07' W 090°32'0 0.0
2018-May-16 22:34N 28°07' W 090°32'0 0.0
2018-May-16 22:30N 28°07' W 090°32'  
2018-May-14 15:10N 28°07' W 090°32'0 0.0
2018-May-14 15:00N 28°07' W 090°32'0 0.0
2018-May-14 12:56N 28°07' W 090°32'  
2018-May-09 09:19N 28°50' W 090°15'8 9.8
2018-May-09 08:31N 28°42' W 090°17'0 9.6
2018-May-09 08:30N 28°42' W 090°17'9 9.6
2018-May-09 07:31N 28°32' W 090°20'0 9.5
2018-May-09 07:30N 28°32' W 090°20'610.4
2018-May-09 06:59N 28°27' W 090°21'22 2.2
2018-May-08 20:53N 28°07' W 090°32'0 0.1
2018-May-08 20:30N 28°07' W 090°32'0 0.2
2018-May-08 19:42N 28°07' W 090°32'0 0.2
2018-May-08 19:15N 28°07' W 090°32'0 0.1
2018-May-08 18:57N 28°07' W 090°32'0 0.1
2018-May-08 18:30N 28°07' W 090°32'0 0.1
2018-May-08 18:00N 28°07' W 090°32'0 0.1
2018-May-08 16:51N 28°07' W 090°32'0 0.0
2018-May-08 16:30N 28°07' W 090°32'0 0.1
2018-May-08 16:00N 28°07' W 090°32'0 0.1
2018-May-08 15:22N 28°07' W 090°32'0 0.1
2018-May-08 14:59N 28°07' W 090°32'0 0.1
2018-May-08 14:30N 28°07' W 090°32'0 0.2
2018-May-08 13:28N 28°07' W 090°32'0 0.2
2018-May-08 13:00N 28°07' W 090°32'1 0.3
2018-May-08 10:23N 28°07' W 090°31'0 1.0
2018-May-08 10:00N 28°07' W 090°31'0 0.5
2018-May-08 09:30N 28°07' W 090°31'  

Dump ship's entire track history